createdAt,value
2019-01-28T00:00:37.158Z,8.30
2019-01-28T00:01:37.132Z,7.50
2019-01-28T00:02:37.258Z,8.10
2019-01-28T00:03:37.166Z,7.90
2019-01-28T00:04:37.398Z,8.20
2019-01-28T00:05:37.187Z,8.60
2019-01-28T00:06:37.221Z,8.60
2019-01-28T00:07:37.232Z,7.80
2019-01-28T00:08:37.363Z,8.40
2019-01-28T00:09:37.423Z,8.30
2019-01-28T00:10:37.397Z,8.50
2019-01-28T00:11:37.299Z,8.30
2019-01-28T00:12:37.358Z,7.90
2019-01-28T00:13:37.444Z,8.30
2019-01-28T00:14:37.476Z,8.90
2019-01-28T00:15:37.356Z,8.50
2019-01-28T00:16:37.407Z,8.80
2019-01-28T00:17:37.409Z,8.20
2019-01-28T00:18:37.421Z,8.30
2019-01-28T00:19:37.553Z,8.40
2019-01-28T00:20:37.467Z,9.20
2019-01-28T00:21:37.481Z,9.10
2019-01-28T00:22:37.490Z,9.40
2019-01-28T00:23:37.527Z,8.70
2019-01-28T00:24:37.691Z,8.90
2019-01-28T00:25:37.555Z,8.50
2019-01-28T00:26:37.670Z,8.80
2019-01-28T00:27:37.565Z,7.90
2019-01-28T00:28:37.708Z,8.70
2019-01-28T00:29:37.817Z,9.00
2019-01-28T00:30:37.628Z,9.20
2019-01-28T00:31:37.650Z,9.50
2019-01-28T00:32:37.657Z,10.00
2019-01-28T00:33:37.683Z,9.80
2019-01-28T00:34:37.874Z,9.00
2019-01-28T00:35:37.708Z,10.70
2019-01-28T00:36:37.846Z,10.40
2019-01-28T00:37:37.724Z,10.40
2019-01-28T00:38:37.753Z,10.10
2019-01-28T00:39:37.935Z,10.80
2019-01-28T00:40:37.783Z,9.60
2019-01-28T00:41:37.922Z,9.80
2019-01-28T00:42:37.950Z,9.90
2019-01-28T00:43:37.966Z,10.10
2019-01-28T00:44:37.986Z,10.20
2019-01-28T00:45:37.881Z,10.20
2019-01-28T00:46:37.885Z,10.10
2019-01-28T00:47:38.028Z,10.10
2019-01-28T00:48:37.917Z,10.30
2019-01-28T00:49:38.130Z,9.80
2019-01-28T00:50:38.084Z,10.40
2019-01-28T00:51:37.993Z,11.20
2019-01-28T00:52:38.002Z,10.40
2019-01-28T00:53:38.126Z,10.40
2019-01-28T00:54:38.142Z,10.60
2019-01-28T00:55:38.096Z,10.50
2019-01-28T00:56:38.049Z,11.00
2019-01-28T00:57:38.106Z,11.20
2019-01-28T00:58:38.113Z,10.40
2019-01-28T00:59:38.277Z,11.10
2019-01-28T01:00:38.137Z,9.70
2019-01-28T01:01:38.997Z,10.40
2019-01-28T01:02:38.158Z,10.10
2019-01-28T01:03:38.171Z,9.80
2019-01-28T01:04:38.334Z,9.50
2019-01-28T01:05:38.212Z,10.30
2019-01-28T01:06:38.216Z,10.30
2019-01-28T01:07:38.233Z,9.70
2019-01-28T01:08:38.253Z,10.00
2019-01-28T01:09:38.370Z,10.00
2019-01-28T01:10:38.322Z,10.50
2019-01-28T01:11:38.317Z,9.80
2019-01-28T01:12:38.389Z,11.00
2019-01-28T01:13:38.341Z,10.70
2019-01-28T01:14:38.573Z,10.40
2019-01-28T01:15:38.492Z,10.50
2019-01-28T01:16:38.382Z,11.20
2019-01-28T01:17:38.530Z,11.60
2019-01-28T01:18:38.545Z,12.30
2019-01-28T01:19:38.489Z,11.40
2019-01-28T01:20:38.704Z,11.00
2019-01-28T01:21:38.482Z,11.10
2019-01-28T01:22:38.503Z,11.60
2019-01-28T01:23:38.630Z,11.70
2019-01-28T01:24:38.538Z,12.40
2019-01-28T01:25:38.764Z,11.40
2019-01-28T01:26:38.576Z,11.30
2019-01-28T01:27:38.584Z,11.50
2019-01-28T01:28:38.614Z,11.80
2019-01-28T01:29:38.731Z,10.80
2019-01-28T01:30:38.946Z,10.40
2019-01-28T01:31:38.653Z,10.50
2019-01-28T01:32:38.781Z,10.90
2019-01-28T01:33:38.697Z,10.80
2019-01-28T01:34:38.716Z,11.40
2019-01-28T01:35:38.885Z,10.20
2019-01-28T01:36:38.740Z,10.70
2019-01-28T01:37:38.739Z,11.80
2019-01-28T01:38:38.743Z,10.60
2019-01-28T01:39:38.781Z,10.70
2019-01-28T01:40:39.064Z,10.50
2019-01-28T01:41:38.823Z,10.30
2019-01-28T01:42:38.825Z,11.00
2019-01-28T01:43:38.841Z,10.50
2019-01-28T01:44:38.860Z,10.70
2019-01-28T01:45:38.974Z,11.50
2019-01-28T01:46:38.918Z,11.20
2019-01-28T01:47:39.027Z,11.20
2019-01-28T01:48:38.923Z,11.20
2019-01-28T01:49:39.059Z,11.20
2019-01-28T01:50:39.082Z,11.30
2019-01-28T01:51:39.098Z,10.80
2019-01-28T01:52:39.126Z,10.80
2019-01-28T01:53:39.031Z,11.20
2019-01-28T01:54:39.050Z,10.70
2019-01-28T01:55:39.315Z,11.60
2019-01-28T01:56:39.054Z,11.30
2019-01-28T01:57:39.067Z,11.30
2019-01-28T01:58:39.213Z,11.70
2019-01-28T01:59:39.102Z,11.20
2019-01-28T02:00:39.292Z,10.50
2019-01-28T02:01:39.260Z,11.30
2019-01-28T02:02:39.283Z,10.90
2019-01-28T02:03:39.305Z,10.60
2019-01-28T02:04:39.198Z,11.00
2019-01-28T02:05:39.311Z,11.00
2019-01-28T02:06:39.354Z,10.60
2019-01-28T02:07:39.256Z,10.50
2019-01-28T02:08:39.384Z,9.70
2019-01-28T02:09:39.311Z,10.60
2019-01-28T02:10:39.411Z,11.20
2019-01-28T02:11:39.528Z,10.40
2019-01-28T02:12:39.404Z,10.00
2019-01-28T02:13:39.466Z,10.30
2019-01-28T02:14:39.487Z,10.30
2019-01-28T02:15:39.501Z,10.40
2019-01-28T02:16:39.518Z,10.70
2019-01-28T02:17:39.455Z,10.80
2019-01-28T02:18:39.546Z,10.20
2019-01-28T02:19:39.434Z,10.50
2019-01-28T02:20:39.581Z,10.70
2019-01-28T02:21:39.699Z,11.10
2019-01-28T02:22:39.504Z,10.50
2019-01-28T02:23:39.635Z,10.40
2019-01-28T02:24:39.537Z,11.60
2019-01-28T02:25:39.546Z,10.90
2019-01-28T02:26:39.735Z,10.80
2019-01-28T02:27:39.600Z,10.20
2019-01-28T02:28:39.591Z,10.70
2019-01-28T02:29:39.722Z,10.80
2019-01-28T02:30:39.743Z,11.90
2019-01-28T02:31:39.777Z,12.80
2019-01-28T02:32:39.662Z,12.10
2019-01-28T02:33:39.801Z,12.60
2019-01-28T02:34:39.700Z,13.10
2019-01-28T02:35:39.695Z,12.70
2019-01-28T02:36:39.778Z,13.80
2019-01-28T02:37:39.754Z,14.10
2019-01-28T02:38:39.753Z,13.30
2019-01-28T02:39:39.790Z,13.90
2019-01-28T02:40:39.794Z,15.70
2019-01-28T02:41:40.028Z,16.30
2019-01-28T02:42:39.839Z,17.30
2019-01-28T02:43:39.835Z,17.70
2019-01-28T02:44:39.981Z,17.70
2019-01-28T02:45:39.898Z,16.70
2019-01-28T02:46:39.943Z,17.50
2019-01-28T02:47:39.938Z,18.30
2019-01-28T02:48:39.938Z,18.30
2019-01-28T02:49:39.979Z,18.60
2019-01-28T02:50:39.973Z,19.70
2019-01-28T02:51:40.110Z,19.30
2019-01-28T02:52:39.986Z,18.90
2019-01-28T02:53:40.016Z,19.30
2019-01-28T02:54:40.012Z,21.60
2019-01-28T02:55:40.147Z,19.10
2019-01-28T02:56:40.225Z,20.80
2019-01-28T02:57:40.070Z,19.80
2019-01-28T02:58:40.101Z,19.30
2019-01-28T02:59:40.101Z,19.80
2019-01-28T03:00:40.233Z,19.00
2019-01-28T03:01:40.402Z,22.20
2019-01-28T03:02:40.172Z,22.60
2019-01-28T03:03:40.283Z,24.70
2019-01-28T03:04:40.178Z,24.50
2019-01-28T03:05:40.310Z,27.00
2019-01-28T03:06:40.324Z,27.70
2019-01-28T03:07:40.228Z,27.60
2019-01-28T03:08:40.228Z,25.90
2019-01-28T03:09:40.269Z,25.00
2019-01-28T03:10:40.394Z,25.20
2019-01-28T03:11:40.437Z,25.70
2019-01-28T03:12:40.303Z,25.20
2019-01-28T03:13:40.339Z,25.10
2019-01-28T03:14:40.351Z,24.00
2019-01-28T03:15:40.472Z,24.80
2019-01-28T03:16:40.405Z,24.90
2019-01-28T03:17:40.557Z,25.60
2019-01-28T03:18:40.398Z,26.60
2019-01-28T03:19:40.426Z,27.10
2019-01-28T03:20:40.466Z,24.80
2019-01-28T03:21:40.570Z,27.70
2019-01-28T03:22:40.639Z,27.60
2019-01-28T03:23:40.484Z,26.50
2019-01-28T03:24:40.627Z,27.70
2019-01-28T03:25:40.523Z,27.20
2019-01-28T03:26:40.545Z,24.90
2019-01-28T03:27:40.605Z,25.20
2019-01-28T03:28:40.689Z,30.10
2019-01-28T03:29:40.704Z,30.00
2019-01-28T03:30:40.626Z,30.50
2019-01-28T03:31:40.626Z,30.20
2019-01-28T03:32:40.810Z,29.00
2019-01-28T03:33:40.656Z,30.10
2019-01-28T03:34:40.780Z,27.80
2019-01-28T03:35:40.805Z,27.40
2019-01-28T03:36:40.706Z,28.00
2019-01-28T03:37:40.757Z,29.40
2019-01-28T03:38:40.744Z,31.10
2019-01-28T03:39:40.804Z,31.20
2019-01-28T03:40:40.884Z,29.60
2019-01-28T03:41:40.890Z,31.50
2019-01-28T03:42:40.831Z,34.50
2019-01-28T03:43:41.019Z,34.60
2019-01-28T03:44:40.901Z,33.00
2019-01-28T03:45:40.959Z,34.40
2019-01-28T03:46:40.902Z,36.20
2019-01-28T03:47:40.992Z,38.50
2019-01-28T03:48:41.038Z,40.40
2019-01-28T03:49:40.914Z,37.70
2019-01-28T03:50:41.049Z,38.20
2019-01-28T03:51:41.060Z,40.50
2019-01-28T03:52:41.067Z,36.30
2019-01-28T03:53:41.186Z,38.70
2019-01-28T03:54:41.004Z,37.90
2019-01-28T03:55:41.010Z,37.50
2019-01-28T03:56:41.037Z,40.30
2019-01-28T03:57:41.033Z,39.40
2019-01-28T03:58:41.263Z,36.80
2019-01-28T03:59:41.111Z,39.30
2019-01-28T04:00:41.140Z,37.80
2019-01-28T04:01:41.214Z,42.60
2019-01-28T04:02:41.222Z,42.70
2019-01-28T04:03:41.227Z,40.30
2019-01-28T04:04:41.270Z,40.60
2019-01-28T04:05:41.152Z,40.20
2019-01-28T04:06:41.178Z,39.60
2019-01-28T04:07:41.196Z,42.20
2019-01-28T04:08:41.289Z,42.00
2019-01-28T04:09:41.217Z,45.20
2019-01-28T04:10:41.238Z,48.80
2019-01-28T04:11:41.371Z,51.30
2019-01-28T04:12:41.388Z,45.50
2019-01-28T04:13:41.461Z,42.60
2019-01-28T04:14:41.418Z,43.60
2019-01-28T04:15:41.319Z,42.00
2019-01-28T04:16:41.329Z,42.50
2019-01-28T04:17:41.464Z,42.80
2019-01-28T04:18:41.587Z,41.70
2019-01-28T04:19:41.392Z,42.80
2019-01-28T04:20:41.516Z,43.50
2019-01-28T04:21:41.434Z,42.50
2019-01-28T04:22:41.437Z,41.30
2019-01-28T04:23:41.710Z,42.00
2019-01-28T04:24:41.481Z,42.40
2019-01-28T04:25:41.593Z,39.50
2019-01-28T04:26:41.619Z,36.60
2019-01-28T04:27:41.633Z,36.80
2019-01-28T04:28:41.623Z,40.00
2019-01-28T04:29:41.541Z,39.00
2019-01-28T04:30:41.560Z,37.70
2019-01-28T04:31:41.683Z,38.20
2019-01-28T04:32:41.702Z,40.10
2019-01-28T04:33:41.819Z,41.70
2019-01-28T04:34:41.733Z,38.50
2019-01-28T04:35:41.641Z,40.50
2019-01-28T04:36:41.705Z,39.00
2019-01-28T04:37:41.724Z,37.70
2019-01-28T04:38:41.786Z,37.90
2019-01-28T04:39:41.698Z,37.50
2019-01-28T04:40:41.827Z,40.30
2019-01-28T04:41:41.724Z,40.00
2019-01-28T04:42:41.736Z,38.60
2019-01-28T04:43:41.926Z,36.10
2019-01-28T04:44:41.785Z,34.10
2019-01-28T04:45:41.801Z,34.80
2019-01-28T04:46:41.809Z,34.00
2019-01-28T04:47:41.855Z,33.40
2019-01-28T04:48:42.105Z,34.50
2019-01-28T04:49:41.872Z,35.80
2019-01-28T04:50:41.996Z,35.20
2019-01-28T04:51:41.895Z,31.40
2019-01-28T04:52:41.897Z,32.00
2019-01-28T04:53:42.063Z,34.70
2019-01-28T04:54:42.046Z,34.10
2019-01-28T04:55:42.065Z,36.40
2019-01-28T04:56:42.079Z,39.20
2019-01-28T04:57:42.097Z,36.90
2019-01-28T04:58:42.081Z,38.10
2019-01-28T04:59:42.025Z,36.60
2019-01-28T05:00:42.039Z,36.80
2019-01-28T05:01:42.048Z,33.50
2019-01-28T05:02:42.077Z,33.30
2019-01-28T05:03:42.240Z,35.30
2019-01-28T05:04:42.110Z,37.10
2019-01-28T05:05:42.219Z,37.60
2019-01-28T05:06:42.311Z,40.00
2019-01-28T05:07:42.144Z,38.70
2019-01-28T05:08:42.280Z,40.10
2019-01-28T05:09:42.170Z,38.00
2019-01-28T05:10:42.201Z,35.90
2019-01-28T05:11:42.293Z,38.10
2019-01-28T05:12:42.203Z,38.00
2019-01-28T05:13:42.217Z,38.20
2019-01-28T05:14:42.239Z,38.50
2019-01-28T05:15:42.386Z,37.60
2019-01-28T05:16:42.399Z,39.40
2019-01-28T05:17:42.305Z,41.20
2019-01-28T05:18:42.430Z,48.70
2019-01-28T05:19:42.349Z,47.10
2019-01-28T05:20:42.350Z,55.50
2019-01-28T05:21:42.519Z,53.70
2019-01-28T05:22:42.490Z,53.10
2019-01-28T05:23:42.512Z,57.70
2019-01-28T05:24:42.412Z,57.90
2019-01-28T05:25:42.421Z,58.40
2019-01-28T05:26:42.476Z,49.20
2019-01-28T05:27:42.449Z,57.60
2019-01-28T05:28:42.461Z,72.80
2019-01-28T05:29:42.472Z,82.30
2019-01-28T05:30:42.526Z,83.90
2019-01-28T05:31:42.560Z,89.30
2019-01-28T05:32:42.566Z,86.60
2019-01-28T05:33:42.661Z,91.80
2019-01-28T05:34:42.680Z,104.20
2019-01-28T05:35:42.687Z,105.00
2019-01-28T05:36:42.683Z,108.30
2019-01-28T05:37:42.721Z,93.20
2019-01-28T05:38:42.744Z,95.10
2019-01-28T05:39:42.637Z,104.20
2019-01-28T05:40:42.766Z,96.60
2019-01-28T05:41:42.818Z,98.40
2019-01-28T05:42:42.801Z,101.50
2019-01-28T05:43:42.699Z,102.60
2019-01-28T05:44:42.710Z,97.50
2019-01-28T05:45:42.848Z,79.80
2019-01-28T05:46:42.883Z,78.10
2019-01-28T05:47:42.885Z,79.20
2019-01-28T05:48:42.789Z,69.10
2019-01-28T05:49:42.785Z,64.60
2019-01-28T05:50:42.801Z,59.80
2019-01-28T05:51:42.924Z,56.20
2019-01-28T05:52:42.952Z,51.70
2019-01-28T05:53:42.835Z,49.80
2019-01-28T05:54:42.869Z,53.60
2019-01-28T05:55:42.940Z,48.70
2019-01-28T05:56:43.025Z,44.20
2019-01-28T05:57:42.912Z,41.90
2019-01-28T05:58:43.050Z,43.90
2019-01-28T05:59:42.954Z,41.10
2019-01-28T06:00:42.972Z,40.30
2019-01-28T06:01:43.196Z,38.30
2019-01-28T06:02:43.029Z,39.30
2019-01-28T06:03:43.133Z,35.50
2019-01-28T06:04:43.022Z,34.90
2019-01-28T06:05:43.034Z,38.10
2019-01-28T06:06:43.159Z,33.70
2019-01-28T06:07:43.195Z,33.80
2019-01-28T06:08:43.095Z,37.20
2019-01-28T06:09:43.119Z,35.40
2019-01-28T06:10:43.113Z,36.50
2019-01-28T06:11:43.204Z,38.00
2019-01-28T06:12:43.173Z,37.40
2019-01-28T06:13:43.278Z,37.40
2019-01-28T06:14:43.173Z,36.20
2019-01-28T06:15:43.191Z,38.20
2019-01-28T06:16:43.294Z,36.80
2019-01-28T06:17:43.214Z,35.90
2019-01-28T06:18:43.359Z,36.50
2019-01-28T06:19:43.268Z,35.20
2019-01-28T06:20:43.290Z,33.90
2019-01-28T06:21:43.410Z,35.30
2019-01-28T06:22:43.429Z,34.20
2019-01-28T06:23:43.440Z,32.60
2019-01-28T06:24:43.396Z,32.10
2019-01-28T06:25:43.333Z,31.40
2019-01-28T06:26:43.486Z,35.10
2019-01-28T06:27:43.509Z,35.30
2019-01-28T06:28:43.392Z,35.30
2019-01-28T06:29:43.424Z,32.10
2019-01-28T06:30:43.431Z,34.60
2019-01-28T06:31:43.564Z,35.50
2019-01-28T06:32:43.461Z,34.10
2019-01-28T06:33:43.588Z,35.90
2019-01-28T06:34:43.513Z,36.40
2019-01-28T06:35:43.500Z,37.90
2019-01-28T06:36:43.791Z,36.90
2019-01-28T06:37:43.546Z,36.80
2019-01-28T06:38:43.574Z,37.30
2019-01-28T06:39:43.569Z,37.60
2019-01-28T06:40:43.582Z,37.10
2019-01-28T06:41:43.772Z,37.40
2019-01-28T06:42:43.611Z,38.30
2019-01-28T06:43:43.743Z,38.10
2019-01-28T06:44:43.760Z,38.20
2019-01-28T06:45:43.665Z,37.30
2019-01-28T06:46:43.840Z,37.70
2019-01-28T06:47:46.920Z,39.60
2019-01-28T06:48:43.924Z,39.50
2019-01-28T06:49:43.733Z,39.80
2019-01-28T06:50:43.853Z,40.30
2019-01-28T06:51:43.775Z,38.20
2019-01-28T06:52:43.822Z,34.70
2019-01-28T06:53:43.852Z,35.40
2019-01-28T06:54:43.816Z,35.40
2019-01-28T06:55:43.931Z,32.60
2019-01-28T06:56:43.950Z,33.90
2019-01-28T06:57:43.853Z,34.30
2019-01-28T06:58:44.030Z,34.00
2019-01-28T06:59:43.995Z,35.00
2019-01-28T07:00:44.011Z,37.00
2019-01-28T07:01:44.073Z,35.30
2019-01-28T07:02:44.035Z,35.30
2019-01-28T07:03:43.986Z,32.80
2019-01-28T07:04:43.944Z,35.80
2019-01-28T07:05:44.093Z,31.40
2019-01-28T07:06:44.043Z,34.70
2019-01-28T07:07:43.993Z,33.00
2019-01-28T07:08:44.017Z,33.30
2019-01-28T07:09:44.145Z,34.10
2019-01-28T07:10:44.029Z,34.30
2019-01-28T07:11:44.107Z,32.80
2019-01-28T07:12:44.193Z,35.10
2019-01-28T07:13:44.246Z,35.80
2019-01-28T07:14:44.233Z,34.50
2019-01-28T07:15:44.127Z,35.50
2019-01-28T07:16:44.257Z,36.30
2019-01-28T07:17:44.151Z,36.30
2019-01-28T07:18:44.227Z,36.40
2019-01-28T07:19:44.212Z,34.40
2019-01-28T07:20:44.209Z,35.30
2019-01-28T07:21:44.196Z,36.80
2019-01-28T07:22:44.268Z,33.00
2019-01-28T07:23:44.320Z,33.70
2019-01-28T07:24:44.442Z,34.40
2019-01-28T07:25:44.335Z,28.50
2019-01-28T07:26:44.287Z,32.20
2019-01-28T07:27:44.422Z,35.70
2019-01-28T07:28:44.442Z,37.40
2019-01-28T07:29:44.454Z,34.50
2019-01-28T07:30:44.521Z,34.70
2019-01-28T07:31:44.386Z,34.00
2019-01-28T07:32:44.446Z,32.20
2019-01-28T07:33:44.458Z,30.10
2019-01-28T07:34:44.425Z,29.30
2019-01-28T07:35:44.466Z,31.30
2019-01-28T07:36:44.567Z,30.50
2019-01-28T07:37:44.468Z,32.30
2019-01-28T07:38:44.592Z,31.50
2019-01-28T07:39:44.605Z,35.70
2019-01-28T07:40:44.678Z,34.80
2019-01-28T07:41:44.535Z,35.30
2019-01-28T07:42:44.659Z,32.70
2019-01-28T07:43:44.564Z,36.20
2019-01-28T07:44:44.579Z,34.90
2019-01-28T07:45:45.706Z,35.30
2019-01-28T07:46:44.691Z,34.00
2019-01-28T07:47:44.730Z,34.40
2019-01-28T07:48:44.646Z,34.80
2019-01-28T07:49:44.651Z,35.30
2019-01-28T07:50:44.665Z,35.30
2019-01-28T07:51:44.709Z,34.00
2019-01-28T07:52:44.810Z,30.70
2019-01-28T07:53:44.693Z,33.50
2019-01-28T07:54:44.946Z,33.40
2019-01-28T07:55:44.756Z,32.30
2019-01-28T07:56:44.770Z,34.40
2019-01-28T07:57:44.765Z,36.30
2019-01-28T07:58:44.794Z,32.60
2019-01-28T07:59:44.970Z,34.80
2019-01-28T08:00:44.943Z,31.00
2019-01-28T08:01:44.950Z,32.90
2019-01-28T08:02:44.843Z,36.80
2019-01-28T08:03:44.863Z,36.40
2019-01-28T08:04:44.947Z,39.30
2019-01-28T08:05:44.905Z,35.80
2019-01-28T08:06:44.962Z,34.00
2019-01-28T08:07:44.914Z,34.20
2019-01-28T08:08:45.058Z,36.20
2019-01-28T08:09:45.087Z,35.70
2019-01-28T08:10:45.098Z,39.40
2019-01-28T08:11:45.031Z,35.40
2019-01-28T08:12:45.017Z,39.40
2019-01-28T08:13:45.063Z,37.80
2019-01-28T08:14:45.017Z,36.40
2019-01-28T08:15:45.064Z,35.10
2019-01-28T08:16:45.102Z,35.40
2019-01-28T08:17:45.096Z,33.60
2019-01-28T08:18:45.104Z,35.20
2019-01-28T08:19:45.219Z,37.50
2019-01-28T08:20:45.121Z,35.30
2019-01-28T08:21:45.265Z,35.00
2019-01-28T08:22:45.137Z,31.10
2019-01-28T08:23:45.184Z,30.50
2019-01-28T08:24:45.357Z,31.40
2019-01-28T08:25:45.187Z,34.20
2019-01-28T08:26:45.205Z,35.80
2019-01-28T08:27:45.240Z,37.40
2019-01-28T08:28:45.253Z,32.90
2019-01-28T08:29:45.323Z,31.30
2019-01-28T08:30:45.289Z,30.90
2019-01-28T08:31:45.314Z,32.70
2019-01-28T08:32:45.427Z,35.20
2019-01-28T08:33:45.449Z,34.50
2019-01-28T08:34:45.438Z,35.80
2019-01-28T08:35:45.366Z,38.80
2019-01-28T08:36:45.401Z,45.40
2019-01-28T08:37:45.399Z,43.10
2019-01-28T08:38:45.525Z,42.30
2019-01-28T08:39:45.540Z,39.80
2019-01-28T08:40:45.502Z,44.10
2019-01-28T08:41:45.569Z,48.00
2019-01-28T08:42:45.486Z,45.30
2019-01-28T08:43:45.483Z,45.80
2019-01-28T08:44:45.497Z,47.80
2019-01-28T08:45:46.703Z,47.60
2019-01-28T08:46:45.647Z,49.20
2019-01-28T08:47:45.551Z,46.40
2019-01-28T08:48:45.565Z,46.20
2019-01-28T08:49:45.572Z,48.20
2019-01-28T08:50:45.736Z,47.90
2019-01-28T08:51:45.726Z,41.60
2019-01-28T08:52:45.627Z,45.60
2019-01-28T08:53:45.757Z,46.20
2019-01-28T08:54:45.773Z,45.30
2019-01-28T08:55:45.847Z,47.30
2019-01-28T08:56:45.804Z,47.70
2019-01-28T08:57:45.817Z,45.70
2019-01-28T08:58:45.737Z,40.70
2019-01-28T08:59:45.748Z,43.90
2019-01-28T09:00:45.857Z,47.30
2019-01-28T09:01:45.777Z,46.60
2019-01-28T09:02:45.895Z,44.80
2019-01-28T09:03:45.787Z,48.20
2019-01-28T09:04:45.814Z,45.80
2019-01-28T09:05:45.919Z,47.80
2019-01-28T09:06:45.963Z,46.10
2019-01-28T09:07:45.860Z,45.50
2019-01-28T09:08:45.886Z,44.70
2019-01-28T09:09:45.894Z,42.30
2019-01-28T09:10:46.014Z,38.80
2019-01-28T09:11:45.939Z,34.00
2019-01-28T09:12:47.199Z,35.10
2019-01-28T09:13:45.965Z,34.50
2019-01-28T09:14:45.985Z,30.10
2019-01-28T09:15:46.096Z,29.20
2019-01-28T09:16:46.004Z,26.20
2019-01-28T09:17:46.133Z,25.20
2019-01-28T09:18:46.044Z,22.90
2019-01-28T09:19:46.063Z,21.20
2019-01-28T09:20:46.183Z,19.90
2019-01-28T09:21:46.199Z,19.80
2019-01-28T09:22:46.120Z,18.90
2019-01-28T09:23:46.239Z,18.50
2019-01-28T09:24:46.143Z,19.00
2019-01-28T09:25:46.253Z,21.10
2019-01-28T09:26:46.300Z,21.40
2019-01-28T09:27:46.201Z,19.80
2019-01-28T09:28:46.220Z,21.20
2019-01-28T09:29:46.215Z,20.00
2019-01-28T09:30:46.372Z,20.30
2019-01-28T09:31:46.330Z,18.80
2019-01-28T09:32:46.400Z,18.00
2019-01-28T09:33:46.294Z,17.40
2019-01-28T09:34:46.337Z,17.50
2019-01-28T09:35:46.346Z,17.70
2019-01-28T09:36:46.433Z,18.00
2019-01-28T09:37:46.379Z,17.50
2019-01-28T09:38:46.391Z,16.90
2019-01-28T09:39:46.530Z,17.00
2019-01-28T09:40:46.424Z,18.60
2019-01-28T09:41:46.545Z,18.60
2019-01-28T09:42:46.589Z,18.80
2019-01-28T09:43:46.604Z,16.40
2019-01-28T09:44:46.625Z,17.70
2019-01-28T09:45:46.515Z,19.00
2019-01-28T09:46:46.815Z,17.30
2019-01-28T09:47:46.628Z,18.20
2019-01-28T09:48:46.597Z,18.80
2019-01-28T09:49:46.619Z,18.30
2019-01-28T09:50:46.627Z,17.90
2019-01-28T09:51:46.815Z,19.80
2019-01-28T09:52:46.666Z,19.00
2019-01-28T09:53:46.806Z,19.50
2019-01-28T09:54:46.701Z,17.80
2019-01-28T09:55:46.749Z,16.90
2019-01-28T09:56:46.850Z,17.80
2019-01-28T09:57:46.769Z,18.40
2019-01-28T09:58:46.915Z,18.80
2019-01-28T09:59:46.860Z,18.50
2019-01-28T10:00:46.946Z,17.50
2019-01-28T10:01:46.909Z,17.00
2019-01-28T10:02:46.926Z,17.60
2019-01-28T10:03:47.018Z,17.00
2019-01-28T10:04:46.933Z,17.00
2019-01-28T10:05:47.051Z,20.30
2019-01-28T10:06:47.142Z,17.00
2019-01-28T10:07:46.977Z,19.00
2019-01-28T10:08:47.118Z,20.20
2019-01-28T10:09:47.030Z,20.00
2019-01-28T10:10:47.169Z,19.50
2019-01-28T10:11:47.213Z,19.40
2019-01-28T10:12:47.095Z,19.50
2019-01-28T10:13:47.097Z,18.50
2019-01-28T10:14:47.111Z,19.60
2019-01-28T10:15:47.267Z,19.60
2019-01-28T10:16:47.333Z,20.60
2019-01-28T10:17:47.308Z,20.50
2019-01-28T10:18:47.213Z,20.10
2019-01-28T10:19:47.366Z,19.90
2019-01-28T10:20:47.270Z,19.30
2019-01-28T10:21:47.377Z,20.80
2019-01-28T10:22:47.314Z,20.40
2019-01-28T10:23:47.446Z,20.50
2019-01-28T10:24:47.468Z,19.80
2019-01-28T10:25:47.496Z,20.90
2019-01-28T10:26:47.612Z,21.10
2019-01-28T10:27:47.440Z,20.90
2019-01-28T10:28:47.463Z,21.70
2019-01-28T10:29:47.463Z,20.60
2019-01-28T10:30:47.506Z,20.50
2019-01-28T10:31:47.659Z,22.20
2019-01-28T10:32:47.545Z,21.60
2019-01-28T10:33:47.574Z,20.80
2019-01-28T10:34:47.582Z,20.80
2019-01-28T10:35:47.782Z,22.40
2019-01-28T10:36:47.805Z,21.60
2019-01-28T10:37:47.781Z,21.40
2019-01-28T10:38:47.801Z,21.80
2019-01-28T10:39:47.831Z,23.10
2019-01-28T10:40:47.756Z,22.20
2019-01-28T10:41:47.976Z,21.20
2019-01-28T10:42:47.777Z,21.70
2019-01-28T10:43:47.817Z,21.10
2019-01-28T10:44:47.949Z,21.60
2019-01-28T10:45:47.978Z,20.90
2019-01-28T10:46:48.047Z,22.40
2019-01-28T10:47:47.899Z,21.80
2019-01-28T10:48:49.730Z,21.10
2019-01-28T10:49:48.080Z,20.30
2019-01-28T10:50:47.992Z,21.80
2019-01-28T10:51:48.060Z,20.90
2019-01-28T10:52:48.034Z,20.20
2019-01-28T10:53:48.073Z,19.90
2019-01-28T10:54:48.200Z,21.50
2019-01-28T10:55:48.126Z,19.90
2019-01-28T10:56:48.253Z,20.50
2019-01-28T10:57:48.283Z,21.80
2019-01-28T10:58:48.306Z,21.40
2019-01-28T10:59:48.344Z,21.60
2019-01-28T11:00:48.250Z,20.20
2019-01-28T11:01:48.425Z,21.80
2019-01-28T11:02:48.423Z,21.60
2019-01-28T11:03:48.326Z,20.60
2019-01-28T11:04:48.345Z,19.40
2019-01-28T11:05:48.499Z,19.00
2019-01-28T11:06:48.421Z,20.30
2019-01-28T11:07:48.602Z,19.70
2019-01-28T11:08:48.463Z,19.30
2019-01-28T11:09:48.517Z,17.10
2019-01-28T11:10:48.587Z,18.30
2019-01-28T11:11:48.605Z,16.80
2019-01-28T11:12:48.792Z,16.40
2019-01-28T11:13:48.602Z,16.60
2019-01-28T11:14:48.749Z,17.60
2019-01-28T11:15:48.788Z,15.90
2019-01-28T11:16:48.698Z,16.40
2019-01-28T11:17:49.060Z,16.30
2019-01-28T11:18:48.917Z,15.60
2019-01-28T11:19:48.912Z,15.90
2019-01-28T11:20:48.876Z,15.70
2019-01-28T11:21:49.032Z,14.10
2019-01-28T11:22:49.141Z,15.40
2019-01-28T11:23:49.121Z,15.80
2019-01-28T11:24:48.925Z,15.90
2019-01-28T11:25:49.057Z,15.90
2019-01-28T11:26:49.014Z,16.00
2019-01-28T11:27:49.220Z,14.50
2019-01-28T11:28:49.137Z,12.20
2019-01-28T11:29:49.153Z,12.00
2019-01-28T11:30:49.251Z,13.50
2019-01-28T11:31:49.114Z,13.90
2019-01-28T11:32:49.231Z,14.30
2019-01-28T11:33:49.301Z,13.40
2019-01-28T11:34:49.411Z,12.90
2019-01-28T11:35:49.277Z,13.40
2019-01-28T11:36:49.375Z,14.20
2019-01-28T11:37:49.594Z,12.90
2019-01-28T11:38:49.448Z,13.10
2019-01-28T11:39:49.310Z,12.90
2019-01-28T11:40:49.385Z,12.70
2019-01-28T11:41:49.407Z,12.10
2019-01-28T11:42:49.487Z,12.70
2019-01-28T11:43:49.559Z,11.90
2019-01-28T11:44:49.603Z,11.50
2019-01-28T11:45:49.743Z,11.80
2019-01-28T11:46:49.662Z,11.80
2019-01-28T11:47:49.648Z,11.80
2019-01-28T11:48:49.581Z,11.60
2019-01-28T11:49:49.705Z,11.10
2019-01-28T11:50:55.847Z,11.30
2019-01-28T11:51:49.787Z,10.80
2019-01-28T11:52:49.792Z,10.70
2019-01-28T11:53:49.728Z,11.50
2019-01-28T11:54:49.740Z,11.70
2019-01-28T11:55:49.801Z,9.40
2019-01-28T11:56:49.818Z,8.60
2019-01-28T11:57:49.870Z,8.20
2019-01-28T11:58:49.908Z,8.10
2019-01-28T11:59:49.898Z,8.80
2019-01-28T12:00:49.922Z,8.50
2019-01-28T12:01:50.216Z,9.10
2019-01-28T12:02:50.054Z,8.10
2019-01-28T12:03:49.996Z,8.70
2019-01-28T12:04:50.157Z,8.70
2019-01-28T12:05:50.095Z,7.30
2019-01-28T12:06:50.183Z,7.70
2019-01-28T12:07:50.128Z,7.80
2019-01-28T12:08:50.173Z,7.70
2019-01-28T12:09:50.167Z,6.70
2019-01-28T12:10:50.323Z,7.50
2019-01-28T12:11:50.343Z,5.70
2019-01-28T12:12:50.260Z,5.80
2019-01-28T12:13:50.301Z,5.70
2019-01-28T12:14:50.333Z,4.90
2019-01-28T12:15:50.370Z,5.90
2019-01-28T12:16:50.573Z,5.00
2019-01-28T12:17:50.424Z,4.90
2019-01-28T12:18:50.452Z,4.90
2019-01-28T12:19:50.520Z,5.20
2019-01-28T12:20:53.640Z,5.50
2019-01-28T12:21:50.744Z,5.60
2019-01-28T12:22:50.551Z,5.50
2019-01-28T12:23:50.702Z,5.10
2019-01-28T12:24:50.639Z,5.00
2019-01-28T12:25:50.762Z,4.10
2019-01-28T12:26:50.797Z,4.30
2019-01-28T12:27:50.701Z,4.30
2019-01-28T12:28:50.717Z,5.20
2019-01-28T12:29:50.762Z,5.10
2019-01-28T12:30:50.908Z,3.90
2019-01-28T12:31:50.915Z,4.50
2019-01-28T12:32:50.974Z,4.40
2019-01-28T12:33:50.883Z,4.50
2019-01-28T12:34:50.917Z,3.90
2019-01-28T12:35:51.056Z,4.00
2019-01-28T12:36:51.024Z,3.90
2019-01-28T12:37:51.111Z,4.30
2019-01-28T12:38:51.243Z,3.60
2019-01-28T12:39:51.036Z,3.90
2019-01-28T12:40:51.196Z,4.00
2019-01-28T12:41:51.091Z,3.90
2019-01-28T12:42:52.581Z,3.80
2019-01-28T12:43:51.266Z,3.90
2019-01-28T12:44:51.323Z,3.90
2019-01-28T12:45:51.237Z,4.20
2019-01-28T12:46:51.256Z,3.90
2019-01-28T12:47:51.401Z,3.80
2019-01-28T12:48:51.424Z,3.70
2019-01-28T12:49:51.327Z,3.40
2019-01-28T12:50:51.500Z,3.30
2019-01-28T12:51:51.419Z,3.50
2019-01-28T12:52:51.439Z,3.40
2019-01-28T12:53:51.582Z,3.60
2019-01-28T12:54:51.617Z,3.40
2019-01-28T12:55:51.524Z,3.40